Time;durP1;ratioP1;P1;durP2;ratioP2;P2;SDS_P1;SDS_P2;PMS_P1;PMS_P2;Temp;Humidity;BMP_temperature;BMP_pressure;BME280_temperature;BME280_humidity;BME280_pressure;Samples;Min_cycle;Max_cycle;Signal;HPM_P1;HPM_P2
2021/03/25 00:01:47;;;;;;;17.25;8.50;;;;;;;5.05;64.58;98531.97;5053580;28;20528;-78
2021/03/25 00:04:13;;;;;;;19.30;9.88;;;;;;;4.88;65.46;98523.84;5053366;28;20626;-82
2021/03/25 00:06:44;;;;;;;16.60;10.38;;;;;;;4.89;65.43;98514.63;5052848;28;20037;-79
2021/03/25 00:09:41;;;;;;;14.77;9.65;;;;;;;4.84;66.03;98514.56;5052391;28;20032;-79
2021/03/25 00:12:07;;;;;;;17.17;10.75;;;;;;;4.59;66.51;98514.94;5051935;28;20075;-78
2021/03/25 00:14:33;;;;;;;24.13;12.93;;;;;;;4.39;67.60;98508.28;5052915;28;20199;-80
2021/03/25 00:16:58;;;;;;;24.13;12.60;;;;;;;4.26;68.26;98509.44;5053021;28;20458;-80
2021/03/25 00:19:24;;;;;;;19.27;11.00;;;;;;;4.23;68.15;98509.88;5052210;28;20536;-81
2021/03/25 00:21:49;;;;;;;17.58;11.38;;;;;;;4.11;68.61;98512.63;5053350;28;20116;-83
2021/03/25 00:24:15;;;;;;;;;;;;;;;3.95;69.37;98507.97;5053456;28;20601;-80
2021/03/25 00:26:42;;;;;;;17.60;9.65;;;;;;;3.88;69.55;98504.59;5053633;28;20043;-83
2021/03/25 00:29:10;;;;;;;23.13;11.50;;;;;;;3.77;69.71;98495.44;5053030;28;20025;-79
2021/03/25 00:31:35;;;;;;;20.48;10.75;;;;;;;3.94;69.81;98503.63;5052624;28;20028;-84
2021/03/25 00:34:01;;;;;;;15.18;8.73;;;;;;;3.77;70.57;98505.41;5051740;28;20029;-83
2021/03/25 00:36:26;;;;;;;;;;;;;;;3.74;70.49;98505.91;5053520;28;20132;-83
2021/03/25 00:38:52;;;;;;;19.08;9.30;;;;;;;3.63;70.78;98509.47;5052989;28;19917;-81
2021/03/25 00:41:18;;;;;;;14.70;8.95;;;;;;;3.52;71.62;98507.56;5053170;28;20037;-83
2021/03/25 00:43:43;;;;;;;14.07;9.13;;;;;;;3.64;71.25;98494.84;5052911;28;20086;-83
2021/03/25 00:46:09;;;;;;;18.00;9.20;;;;;;;3.52;71.32;98494.06;5053252;28;20413;-83
2021/03/25 00:48:34;;;;;;;19.70;10.75;;;;;;;3.43;71.74;98503.59;5051711;28;20837;-85
2021/03/25 00:51:00;;;;;;;;;;;;;;;3.33;72.00;98503.34;5052813;28;20026;-85
2021/03/25 00:53:33;;;;;;;18.65;10.10;;;;;;;3.33;72.45;98503.34;5053050;28;19939;-82
2021/03/25 00:55:59;;;;;;;19.58;9.90;;;;;;;3.21;73.08;98500.66;5052383;28;20033;-84
2021/03/25 00:58:25;;;;;;;14.57;9.23;;;;;;;3.15;73.14;98504.28;5052224;28;20032;-84
2021/03/25 01:00:51;;;;;;;15.00;9.32;;;;;;;3.10;73.22;98494.16;5052388;28;20029;-83
2021/03/25 01:03:20;;;;;;;17.67;10.48;;;;;;;2.96;73.90;98498.16;5051736;28;20408;-80
2021/03/25 01:05:46;;;;;;;17.27;9.93;;;;;;;2.89;74.16;98499.31;5053156;28;20033;-81
2021/03/25 01:08:12;;;;;;;15.93;9.32;;;;;;;2.93;74.46;98497.81;5053652;28;20029;-84
2021/03/25 01:10:43;;;;;;;20.85;10.40;;;;;;;2.93;74.70;98498.63;5051912;28;20025;-82
2021/03/25 01:13:22;;;;;;;12.38;9.20;;;;;;;3.05;74.27;98491.34;5053016;28;20396;-83
2021/03/25 01:15:48;;;;;;;14.30;8.80;;;;;;;3.12;73.86;98483.97;5051556;28;20035;-82
2021/03/25 01:18:13;;;;;;;14.32;9.68;;;;;;;3.38;73.27;98500.78;5053009;28;20029;-81
2021/03/25 01:20:41;;;;;;;;;;;;;;;3.42;72.76;98491.94;5054473;28;20436;-80
2021/03/25 01:23:06;;;;;;;;;;;;;;;3.33;73.00;98490.66;5058005;28;20285;-82
2021/03/25 01:25:33;;;;;;;14.70;7.87;;;;;;;3.21;73.62;98496.06;5056329;28;19912;-78
2021/03/25 01:28:00;;;;;;;13.52;8.77;;;;;;;3.26;73.67;98492.66;5051943;28;20053;-78
2021/03/25 01:30:28;;;;;;;15.02;8.60;;;;;;;3.11;73.98;98493.13;5050575;28;20485;-79
2021/03/25 01:32:54;;;;;;;12.82;8.02;;;;;;;2.99;74.63;98499.56;5052321;28;20025;-81
2021/03/25 01:35:20;;;;;;;11.52;8.18;;;;;;;3.01;74.32;98492.88;5052061;28;20051;-77
2021/03/25 01:37:47;;;;;;;12.13;7.90;;;;;;;2.82;75.22;98496.72;5051644;28;20481;-78
2021/03/25 01:40:42;;;;;;;15.85;8.30;;;;;;;2.78;75.51;98495.56;5053130;28;20547;-84
2021/03/25 01:43:18;;;;;;;15.85;9.57;;;;;;;2.85;75.37;98490.84;5051439;28;20067;-84
2021/03/25 01:45:49;;;;;;;16.17;8.30;;;;;;;2.81;75.50;98494.28;5053062;28;20025;-87
2021/03/25 01:48:16;;;;;;;17.00;8.52;;;;;;;3.00;74.82;98493.94;5054087;28;20423;-86
2021/03/25 01:50:42;;;;;;;14.02;8.98;;;;;;;3.00;74.63;98488.56;5054039;28;20021;-88
2021/03/25 01:53:16;;;;;;;11.23;8.73;;;;;;;2.78;75.85;98490.16;5053529;28;20077;-84
2021/03/25 01:55:58;;;;;;;12.20;8.55;;;;;;;2.60;76.64;98487.53;5053203;28;20033;-83
2021/03/25 01:58:29;;;;;;;14.25;8.32;;;;;;;2.61;76.64;98498.09;5053852;28;20053;-85
2021/03/25 02:01:07;;;;;;;20.67;9.73;;;;;;;2.48;77.13;98490.19;5053667;28;20076;-83
2021/03/25 02:03:52;;;;;;;16.50;9.70;;;;;;;2.36;77.89;98499.31;5054755;28;20059;-84
2021/03/25 02:06:18;;;;;;;14.32;9.90;;;;;;;2.21;78.75;98494.34;5055058;28;20043;-88
2021/03/25 02:08:55;;;;;;;16.08;8.73;;;;;;;2.15;79.36;98490.69;5056835;28;20473;-85
2021/03/25 02:11:38;;;;;;;16.40;9.60;;;;;;;2.17;79.35;98487.72;5055918;28;20017;-83
2021/03/25 02:14:10;;;;;;;12.23;8.82;;;;;;;2.11;80.12;98488.66;5054413;28;20040;-80
2021/03/25 02:16:48;;;;;;;22.13;9.82;;;;;;;2.08;80.14;98487.22;5053149;28;20043;-79
2021/03/25 02:19:31;;;;;;;16.10;8.82;;;;;;;2.06;80.50;98491.22;5037397;28;20061;-84
2021/03/25 02:22:09;;;;;;;14.63;8.73;;;;;;;2.09;80.24;98483.50;5051557;28;20029;-81
2021/03/25 02:24:46;;;;;;;16.33;9.85;;;;;;;2.19;79.91;98485.66;5051636;28;20036;-81
2021/03/25 02:27:49;;;;;;;16.02;8.93;;;;;;;2.28;79.41;98488.84;5050161;28;20025;-87
2021/03/25 02:30:31;;;;;;;17.25;10.02;;;;;;;2.46;78.69;98492.31;5049908;28;20139;-81
2021/03/25 02:32:59;;;;;;;22.38;9.93;;;;;;;2.47;78.60;98495.84;5051359;28;20028;-83
2021/03/25 02:35:51;;;;;;;20.15;10.85;;;;;;;2.53;78.49;98481.41;5050136;28;20018;-82
2021/03/25 02:38:24;;;;;;;20.75;10.25;;;;;;;2.55;77.95;98490.09;5048253;28;20040;-81
2021/03/25 02:40:54;;;;;;;16.73;10.35;;;;;;;2.44;78.31;98482.81;5049985;28;20049;-82
2021/03/25 02:43:35;;;;;;;22.00;11.23;;;;;;;2.43;78.33;98486.53;5054508;28;20029;-84
2021/03/25 02:46:23;;;;;;;18.08;10.32;;;;;;;2.38;78.68;98486.41;5056202;28;20142;-87
2021/03/25 02:48:53;;;;;;;14.88;9.50;;;;;;;2.27;78.80;98471.81;5056244;28;20029;-86
2021/03/25 02:51:24;;;;;;;19.60;9.60;;;;;;;2.39;78.50;98490.75;5055838;28;20032;-89
2021/03/25 02:53:50;;;;;;;14.13;9.27;;;;;;;2.52;78.09;98490.56;5056296;28;20497;-86
2021/03/25 02:56:23;;;;;;;18.92;10.48;;;;;;;2.35;78.53;98492.28;5056271;28;20039;-84
2021/03/25 02:59:07;;;;;;;15.50;9.73;;;;;;;2.40;78.09;98495.09;5055534;28;20024;-80
2021/03/25 03:01:36;;;;;;;18.50;10.43;;;;;;;2.35;78.39;98484.19;5052827;28;20119;-85
2021/03/25 03:04:21;;;;;;;20.75;9.75;;;;;;;2.46;78.29;98486.09;5088517;28;20065;-88
2021/03/25 03:07:09;;;;;;;26.58;10.63;;;;;;;2.39;78.66;98491.56;5056062;28;20029;-86
2021/03/25 03:09:41;;;;;;;16.10;9.43;;;;;;;2.28;78.94;98488.84;5056885;28;20032;-81
2021/03/25 03:12:18;;;;;;;25.02;12.05;;;;;;;2.28;78.99;98488.84;5056419;28;20052;-84
2021/03/25 03:14:56;;;;;;;20.15;10.40;;;;;;;2.09;79.72;98488.88;5054409;28;20470;-84
2021/03/25 03:17:29;;;;;;;14.13;8.85;;;;;;;1.92;80.40;98487.84;5055522;28;20044;-81
2021/03/25 03:20:06;;;;;;;18.52;11.75;;;;;;;1.75;81.01;98489.53;5055837;28;20036;-82
2021/03/25 03:22:34;;;;;;;14.32;9.27;;;;;;;1.54;81.62;98488.09;5055967;28;20106;-83
2021/03/25 03:24:59;;;;;;;23.08;11.27;;;;;;;1.46;81.90;98487.59;5056264;28;20021;-85
2021/03/25 03:27:41;;;;;;;17.88;10.30;;;;;;;1.63;81.47;98489.44;5054920;28;20155;-82
2021/03/25 03:30:14;;;;;;;19.10;10.60;;;;;;;1.56;81.34;98496.81;5055723;28;20029;-87
2021/03/25 03:33:06;;;;;;;16.60;9.15;;;;;;;1.37;82.30;98494.31;5055984;28;20028;-84
2021/03/25 03:35:39;;;;;;;20.08;9.80;;;;;;;1.25;83.01;98498.78;5055716;28;20075;-85
2021/03/25 03:38:34;;;;;;;15.05;9.85;;;;;;;1.32;82.63;98488.75;5058155;28;20032;-87
2021/03/25 03:41:01;;;;;;;16.38;9.85;;;;;;;1.56;81.70;98498.69;5061881;28;20041;-85
2021/03/25 03:43:28;;;;;;;19.55;9.63;;;;;;;1.43;82.06;98498.81;5060923;28;20502;-83
2021/03/25 03:45:59;;;;;;;16.05;9.85;;;;;;;1.38;82.54;98490.59;5056645;28;20477;-82
2021/03/25 03:48:31;;;;;;;17.83;9.75;;;;;;;1.47;82.20;98497.31;5055907;28;20021;-85
2021/03/25 03:51:00;;;;;;;16.80;9.35;;;;;;;1.30;82.35;98489.00;5054986;28;20465;-83
2021/03/25 03:53:27;;;;;;;16.48;9.85;;;;;;;1.17;83.22;98485.59;5054140;28;20481;-83
2021/03/25 03:56:05;;;;;;;11.55;8.15;;;;;;;1.24;82.99;98489.06;5055093;28;20036;-85
2021/03/25 03:58:40;;;;;;;20.15;10.68;;;;;;;1.04;83.62;98490.06;5054654;28;20036;-84
2021/03/25 04:01:20;;;;;;;14.52;10.00;;;;;;;1.03;83.92;98491.09;5054137;28;20025;-83
2021/03/25 04:03:56;;;;;;;17.50;10.02;;;;;;;1.05;83.36;98489.03;5053123;28;20040;-81
2021/03/25 04:06:32;;;;;;;13.13;7.30;;;;;;;0.86;84.23;98492.72;5046816;28;20051;-84
2021/03/25 04:09:09;;;;;;;;;;;;;;;0.74;84.73;98493.66;5035852;28;20037;-82
2021/03/25 04:11:44;;;;;;;16.60;9.88;;;;;;;0.75;85.18;98492.63;5046787;28;20396;-84
2021/03/25 04:14:17;;;;;;;22.35;12.88;;;;;;;0.73;85.64;98498.22;5055597;28;20071;-84
2021/03/25 04:16:45;;;;;;;14.55;9.25;;;;;;;0.86;85.00;98500.78;5054623;28;20053;-83
2021/03/25 04:19:16;;;;;;;16.67;9.20;;;;;;;0.72;85.34;98496.53;5053807;28;20037;-84
2021/03/25 04:21:56;;;;;;;18.13;9.57;;;;;;;0.91;84.44;98498.25;5054239;28;20063;-84
2021/03/25 04:24:26;;;;;;;13.30;10.15;;;;;;;0.88;84.33;98500.56;5052538;28;20036;-85
2021/03/25 04:27:05;;;;;;;16.48;9.77;;;;;;;0.95;84.08;98499.47;5053667;28;20115;-85
2021/03/25 04:29:47;;;;;;;11.05;8.20;;;;;;;1.03;83.62;98499.19;5058135;28;20440;-81
2021/03/25 04:32:12;;;;;;;14.52;9.20;;;;;;;0.78;84.34;98490.31;5059188;28;20032;-87
2021/03/25 04:34:38;;;;;;;19.50;10.65;;;;;;;1.01;83.58;98503.16;5054459;28;20098;-83
2021/03/25 04:37:07;;;;;;;16.42;10.75;;;;;;;0.97;83.46;98502.75;5055667;28;20090;-80
2021/03/25 04:39:33;;;;;;;16.20;9.85;;;;;;;0.93;84.00;98506.13;5055998;28;20052;-84
2021/03/25 04:42:01;;;;;;;17.65;10.32;;;;;;;0.95;83.79;98504.84;5054198;28;20025;-84
2021/03/25 04:44:51;;;;;;;15.07;9.25;;;;;;;1.05;83.51;98499.81;5054787;28;20029;-81
2021/03/25 04:47:19;;;;;;;18.15;10.38;;;;;;;0.90;84.08;98509.25;5057924;28;20035;-83
2021/03/25 04:49:47;;;;;;;15.35;9.73;;;;;;;0.93;84.10;98514.22;5056894;28;20029;-85
2021/03/25 04:52:22;;;;;;;22.63;10.35;;;;;;;0.98;84.15;98509.81;5054258;28;20029;-85
2021/03/25 04:54:48;;;;;;;18.95;9.20;;;;;;;0.95;83.85;98496.78;5053099;28;20033;-84
2021/03/25 04:57:16;;;;;;;16.23;9.50;;;;;;;1.05;83.67;98499.81;5054106;28;20040;-85
2021/03/25 04:59:42;;;;;;;16.50;9.23;;;;;;;0.84;84.27;98502.91;5046754;28;20029;-85
2021/03/25 05:02:11;;;;;;;16.23;9.48;;;;;;;0.81;84.68;98492.56;5034003;28;20037;-84
2021/03/25 05:04:42;;;;;;;18.05;10.05;;;;;;;0.90;84.35;98496.63;5034304;28;20056;-84
2021/03/25 05:07:12;;;;;;;15.10;9.70;;;;;;;0.83;84.62;98506.63;5034484;28;20099;-86
2021/03/25 05:09:38;;;;;;;17.80;10.43;;;;;;;0.76;84.81;98495.06;5034959;28;20060;-86
2021/03/25 05:12:04;;;;;;;14.60;9.75;;;;;;;0.86;84.45;98495.41;5034242;28;20022;-80
2021/03/25 05:14:30;;;;;;;18.98;10.05;;;;;;;0.91;84.28;98503.66;5033610;28;20025;-85
2021/03/25 05:17:19;;;;;;;12.18;8.57;;;;;;;0.95;84.16;98510.25;5034319;28;20112;-89
2021/03/25 05:19:56;;;;;;;16.60;10.15;;;;;;;0.98;84.37;98509.81;5035610;28;20029;-86
2021/03/25 05:23:06;;;;;;;21.17;10.70;;;;;;;1.12;84.01;98509.69;5034779;28;20021;-85
2021/03/25 05:25:54;;;;;;;18.73;10.45;;;;;;;1.08;83.72;98506.63;5032193;28;20044;-88
2021/03/25 05:28:30;;;;;;;12.10;9.40;;;;;;;1.28;83.37;98509.97;5035776;28;20022;-87
2021/03/25 05:30:58;;;;;;;20.02;10.80;;;;;;;1.42;82.46;98513.31;5040939;28;20087;-88
2021/03/25 05:33:27;;;;;;;20.98;10.60;;;;;;;1.39;82.68;98521.84;5039705;28;20029;-85
2021/03/25 05:36:11;;;;;;;16.13;9.32;;;;;;;1.58;82.26;98516.25;5040995;28;20052;-88
2021/03/25 05:38:38;;;;;;;15.95;9.52;;;;;;;1.78;81.37;98513.34;5069918;28;20033;-87
2021/03/25 05:41:06;;;;;;;17.73;10.18;;;;;;;2.02;80.29;98523.22;5063411;28;20089;-89
2021/03/25 05:43:53;;;;;;;17.02;9.18;;;;;;;2.03;80.38;98524.03;5063892;28;20033;-88
2021/03/25 05:46:45;;;;;;;13.35;9.13;;;;;;;2.15;79.71;98520.34;5060400;28;20154;-88
2021/03/25 05:49:27;;;;;;;16.77;8.77;;;;;;;2.08;79.87;98522.31;5051337;28;20408;-86
2021/03/25 05:52:31;;;;;;;18.52;11.93;;;;;;;2.23;79.60;98535.38;5062564;28;20025;-83
2021/03/25 05:55:43;;;;;;;14.68;9.60;;;;;;;2.21;79.59;98521.31;5058525;28;20049;-81
2021/03/25 05:58:11;;;;;;;18.63;10.02;;;;;;;2.27;79.11;98525.78;5056581;28;20037;-83
2021/03/25 06:00:51;;;;;;;17.75;10.40;;;;;;;2.56;78.43;98529.56;5055461;28;20028;-87
2021/03/25 06:03:19;;;;;;;19.10;9.90;;;;;;;2.75;77.36;98522.19;5055635;28;20025;-85
2021/03/25 06:05:49;;;;;;;18.33;11.27;;;;;;;2.80;77.04;98528.56;5052387;28;20017;-89
2021/03/25 06:08:17;;;;;;;21.85;11.75;;;;;;;3.18;76.25;98525.44;5058033;28;20112;-87
2021/03/25 06:11:00;;;;;;;16.45;11.10;;;;;;;3.21;75.76;98525.81;5063808;28;20512;-89
2021/03/25 06:13:28;;;;;;;19.15;10.82;;;;;;;3.16;75.54;98525.66;5061739;28;20017;-88
2021/03/25 06:16:09;;;;;;;17.95;10.70;;;;;;;3.42;74.94;98526.25;5051092;28;20033;-83
2021/03/25 06:18:55;;;;;;;26.80;13.63;;;;;;;3.61;74.05;98533.19;5056852;28;20025;-82
2021/03/25 06:21:39;;;;;;;16.58;10.57;;;;;;;3.96;72.61;98531.28;5062369;28;20032;-86
2021/03/25 06:24:07;;;;;;;16.42;10.68;;;;;;;3.91;72.37;98525.75;5065193;28;20071;-87
2021/03/25 06:26:44;;;;;;;14.93;9.77;;;;;;;4.13;71.77;98531.34;5060296;28;20028;-77
2021/03/25 06:29:21;;;;;;;18.02;10.63;;;;;;;4.22;70.95;98525.31;5034847;28;20025;-74
2021/03/25 06:32:04;;;;;;;20.55;10.82;;;;;;;4.31;70.81;98548.25;5054335;28;20079;-78
2021/03/25 06:34:53;;;;;;;19.45;10.35;;;;;;;4.66;69.69;98541.88;5055225;28;20033;-76
2021/03/25 06:37:27;;;;;;;21.65;11.40;;;;;;;4.44;69.67;98549.03;5058786;28;20432;-87
2021/03/25 06:40:00;;;;;;;18.02;10.80;;;;;;;4.26;70.04;98536.50;5077388;28;20045;-88
2021/03/25 06:42:28;;;;;;;16.13;11.25;;;;;;;4.59;70.64;98546.59;5076383;28;20017;-90
2021/03/25 06:45:15;;;;;;;20.80;11.55;;;;;;;4.62;69.43;98543.41;5076419;28;20031;-88
2021/03/25 06:48:06;;;;;;;20.35;11.10;;;;;;;4.72;68.82;98543.59;5074115;28;20087;-89
2021/03/25 06:50:50;;;;;;;18.40;10.88;;;;;;;4.84;68.57;98547.06;5076400;28;20029;-90
2021/03/25 06:53:21;;;;;;;13.70;9.68;;;;;;;5.40;66.59;98548.81;5073070;28;20059;-86
2021/03/25 06:55:56;;;;;;;17.88;10.85;;;;;;;5.48;65.74;98545.72;5066406;28;20029;-91
2021/03/25 06:58:55;;;;;;;16.60;10.07;;;;;;;5.44;66.02;98549.97;5061164;28;20747;-84
2021/03/25 07:01:33;;;;;;;15.68;12.57;;;;;;;5.76;64.97;98542.06;5042290;28;20139;-84
2021/03/25 07:04:05;;;;;;;17.15;10.77;;;;;;;5.69;65.12;98542.22;5063973;28;20084;-86
2021/03/25 07:06:35;;;;;;;13.38;10.38;;;;;;;5.78;64.26;98546.16;5063437;28;20025;-85
2021/03/25 07:09:01;;;;;;;15.95;10.13;;;;;;;5.97;64.12;98554.03;5059476;28;20013;-89
2021/03/25 07:11:29;;;;;;;14.90;9.75;;;;;;;5.86;63.93;98528.63;5058781;28;20032;-86
2021/03/25 07:14:05;;;;;;;17.02;10.48;;;;;;;5.88;63.63;98538.19;5056287;28;20017;-90
2021/03/25 07:16:35;;;;;;;14.88;10.20;;;;;;;6.05;63.33;98538.13;5058464;28;20025;-90
2021/03/25 07:19:05;;;;;;;16.38;9.85;;;;;;;5.94;63.29;98547.22;5058464;28;20032;-88
2021/03/25 07:21:43;;;;;;;19.83;11.82;;;;;;;6.19;62.29;98509.53;5059233;28;20056;-92
2021/03/25 07:24:27;;;;;;;20.73;12.60;;;;;;;6.74;61.06;98555.53;5054222;28;20062;-90
2021/03/25 07:26:59;;;;;;;17.05;11.15;;;;;;;6.95;60.01;98540.25;5060948;28;20029;-88
2021/03/25 07:29:31;;;;;;;22.45;13.02;;;;;;;7.45;58.58;98524.38;5068984;28;20073;-88
2021/03/25 07:45:25;;;;;;;16.17;10.43;;;;;;;10.28;48.79;98538.56;5392191;23;20064;-87
2021/03/25 07:47:53;;;;;;;19.67;10.77;;;;;;;10.25;48.26;98522.72;4956421;29;20052;-85
2021/03/25 07:50:25;;;;;;;17.98;12.52;;;;;;;10.33;48.58;98556.91;4941485;29;20021;-85
2021/03/25 07:52:51;;;;;;;18.80;11.48;;;;;;;10.30;48.19;98546.53;4956716;29;20043;-85
2021/03/25 07:55:19;;;;;;;18.23;11.52;;;;;;;10.72;47.82;98553.16;4941198;29;20027;-86
2021/03/25 07:58:08;;;;;;;19.27;11.90;;;;;;;10.81;47.26;98544.38;4955027;29;20035;-86
2021/03/25 08:00:56;;;;;;;20.70;12.50;;;;;;;10.73;47.35;98543.03;4925596;29;20024;-88
2021/03/25 08:07:22;;;;;;;15.20;10.95;;;;;;;10.59;47.54;98553.75;4944279;29;20039;-86
2021/03/25 08:09:56;;;;;;;20.88;11.88;;;;;;;11.38;46.08;98555.47;4942185;29;20060;-84
2021/03/25 08:13:14;;;;;;;19.60;11.93;;;;;;;12.01;44.62;98539.88;4943445;29;20084;-86
2021/03/25 08:15:53;;;;;;;15.82;11.95;;;;;;;13.89;40.48;98550.69;4935655;29;20048;-86
2021/03/25 08:18:56;;;;;;;13.45;9.98;;;;;;;13.13;41.01;98550.28;4943251;29;20039;-87
2021/03/25 08:21:58;;;;;;;18.42;12.43;;;;;;;12.43;42.16;98539.13;4938916;29;20579;-88
2021/03/25 08:24:53;;;;;;;15.07;10.52;;;;;;;13.47;41.46;98548.09;4925743;29;20023;-88
2021/03/25 08:28:07;;;;;;;15.82;10.75;;;;;;;14.04;40.09;98535.03;4923620;29;20046;-86
2021/03/25 08:31:27;;;;;;;22.98;11.00;;;;;;;14.42;38.22;98542.84;4928471;29;20051;-87
2021/03/25 08:34:53;;;;;;;16.83;11.27;;;;;;;14.36;38.05;98544.06;4939613;29;20048;-86
2021/03/25 08:38:28;;;;;;;13.07;10.07;;;;;;;13.87;38.90;98555.69;4939426;29;20034;-87
2021/03/25 08:41:19;;;;;;;20.27;12.32;;;;;;;13.94;38.97;98552.53;4923969;29;20044;-87
2021/03/25 08:46:51;;;;;;;12.77;9.67;;;;;;;15.38;35.79;98518.66;5102910;23;20032;-83
2021/03/25 08:49:20;;;;;;;15.10;10.68;;;;;;;13.73;38.60;98534.75;4959058;29;20027;-83
2021/03/25 08:51:47;;;;;;;17.75;10.70;;;;;;;15.44;35.78;98522.13;4959183;29;20016;-88
2021/03/25 08:54:34;;;;;;;17.85;10.77;;;;;;;14.88;36.59;98542.69;4960067;29;20027;-85
2021/03/25 08:57:15;;;;;;;16.20;11.52;;;;;;;16.46;34.23;98543.19;4960140;29;20011;-84
2021/03/25 09:00:22;;;;;;;14.38;10.65;;;;;;;16.82;33.09;98527.22;4959904;29;20043;-85
2021/03/25 09:02:58;;;;;;;14.75;11.30;;;;;;;16.20;34.17;98532.03;4901861;29;20023;-86
2021/03/25 09:05:36;;;;;;;16.35;11.38;;;;;;;15.29;36.23;98519.72;4951608;29;20072;-84
2021/03/25 09:08:11;;;;;;;14.60;10.55;;;;;;;16.42;33.91;98509.88;4957450;29;20027;-86
2021/03/25 09:10:45;;;;;;;17.27;10.97;;;;;;;14.94;35.94;98505.66;4958766;29;20040;-85
2021/03/25 09:13:14;;;;;;;13.57;10.68;;;;;;;15.12;35.75;98528.69;4941421;29;20032;-88
2021/03/25 09:15:44;;;;;;;25.17;9.70;;;;;;;14.81;36.86;98503.75;4958921;29;20024;-85
2021/03/25 09:55:25;;;;;;;17.30;10.52;;;;;;;15.67;35.18;98500.88;4937556;29;20044;-87
2021/03/25 09:57:52;;;;;;;23.10;10.85;;;;;;;17.42;32.54;98457.31;4923197;29;20040;-86
2021/03/25 10:00:31;;;;;;;13.55;10.07;;;;;;;18.95;29.72;98488.34;4939546;29;20071;-84
2021/03/25 10:03:05;;;;;;;13.63;10.32;;;;;;;17.81;30.81;98487.56;4922806;29;20062;-84
2021/03/25 10:05:31;;;;;;;16.98;9.95;;;;;;;17.19;30.87;98484.38;5307128;23;20040;-86
2021/03/25 10:08:19;;;;;;;13.90;9.95;;;;;;;15.55;34.25;98482.16;4923747;29;20031;-84
2021/03/25 10:11:07;;;;;;;14.90;10.38;;;;;;;16.48;33.11;98482.91;4938461;29;20033;-85
2021/03/25 10:13:44;;;;;;;16.83;9.23;;;;;;;16.54;33.13;98471.44;4922083;29;20032;-85
2021/03/25 10:16:35;;;;;;;14.93;10.88;;;;;;;16.89;32.58;98475.06;4923592;29;20480;-87
2021/03/25 10:19:11;;;;;;;15.15;9.73;;;;;;;17.53;31.88;98453.09;4922752;29;20056;-87
2021/03/25 10:22:17;;;;;;;13.27;10.68;;;;;;;17.82;30.74;98458.78;4922813;29;20024;-85
2021/03/25 10:25:38;;;;;;;12.57;9.70;;;;;;;17.25;31.56;98440.78;4917998;29;20024;-87
2021/03/25 10:28:27;;;;;;;12.95;9.80;;;;;;;17.22;31.87;98442.25;4921096;29;20043;-87
2021/03/25 10:31:02;;;;;;;13.13;8.95;;;;;;;17.06;32.56;98450.22;4921361;29;20028;-87
2021/03/25 10:33:56;;;;;;;20.35;10.05;;;;;;;17.21;32.00;98437.84;4939335;29;20091;-86
2021/03/25 10:37:17;;;;;;;12.18;9.60;;;;;;;16.85;32.35;98413.28;4939833;29;20060;-86
2021/03/25 10:40:36;;;;;;;11.60;9.93;;;;;;;18.14;30.33;98427.69;4925062;29;20024;-86
2021/03/25 10:43:33;;;;;;;15.52;10.07;;;;;;;17.31;31.15;98398.78;5046267;23;20035;-89
2021/03/25 10:46:06;;;;;;;14.25;10.43;;;;;;;17.51;31.28;98405.59;4959095;29;20107;-86
2021/03/25 10:48:43;;;;;;;12.45;9.15;;;;;;;17.47;31.54;98432.28;4955214;29;20016;-83
2021/03/25 10:51:12;;;;;;;17.05;8.80;;;;;;;18.18;31.07;98425.88;4942854;29;20114;-83
2021/03/25 10:53:51;;;;;;;12.73;10.13;;;;;;;18.06;30.80;98400.84;4958526;29;20062;-86
2021/03/25 10:56:54;;;;;;;17.83;10.88;;;;;;;17.74;30.84;98392.34;4956911;29;20040;-83
2021/03/25 10:59:24;;;;;;;20.30;9.95;;;;;;;17.86;30.65;98406.31;4927932;29;20019;-83
2021/03/25 11:01:58;;;;;;;16.30;9.23;;;;;;;16.93;32.08;98378.50;4957763;29;20020;-82
2021/03/25 11:04:34;;;;;;;13.73;9.52;;;;;;;16.80;32.42;98385.81;5172309;23;20044;-81
2021/03/25 11:07:12;;;;;;;14.85;10.20;;;;;;;17.83;30.75;98374.56;4927330;29;20024;-82
2021/03/25 11:09:38;;;;;;;14.70;10.23;;;;;;;17.43;31.27;98395.34;4943401;29;20020;-85
2021/03/25 11:12:31;;;;;;;12.75;10.15;;;;;;;16.07;33.81;98395.75;4927493;29;20015;-82
2021/03/25 11:14:59;;;;;;;18.90;10.77;;;;;;;15.19;35.46;98362.88;4927104;29;20035;-86
2021/03/25 11:17:36;;;;;;;15.50;10.50;;;;;;;14.39;36.81;98371.97;4927719;29;20043;-85
2021/03/25 11:22:38;;;;;;;20.52;11.85;;;;;;;13.80;38.31;98354.53;5330908;23;20055;-89
2021/03/25 11:25:07;;;;;;;14.70;10.05;;;;;;;13.61;38.86;98345.56;5095204;23;20049;-90
2021/03/25 11:27:34;;;;;;;13.95;9.77;;;;;;;13.58;39.29;98359.09;4906653;29;20033;-86
2021/03/25 11:30:06;;;;;;;16.65;10.00;;;;;;;13.80;38.80;98343.53;4923215;29;20037;-87
2021/03/25 11:33:22;;;;;;;16.05;11.00;;;;;;;13.26;39.19;98336.06;4923038;29;20012;-86
2021/03/25 11:36:08;;;;;;;12.10;9.43;;;;;;;13.47;39.14;98336.47;4923504;29;20028;-88
2021/03/25 11:39:10;;;;;;;14.75;10.63;;;;;;;13.75;38.71;98307.09;4887584;29;20473;-87
2021/03/25 11:42:26;;;;;;;16.85;9.73;;;;;;;14.04;38.48;98335.03;4917197;29;20044;-87
2021/03/25 11:45:44;;;;;;;13.52;9.20;;;;;;;13.94;38.31;98333.31;4923001;29;20036;-87
2021/03/25 11:48:55;;;;;;;11.63;8.25;;;;;;;13.98;38.31;98322.50;4922397;29;20028;-89
2021/03/25 11:51:45;;;;;;;13.32;9.73;;;;;;;13.93;37.79;98303.38;4921324;29;20134;-88
2021/03/25 11:54:34;;;;;;;13.43;9.80;;;;;;;13.99;38.27;98312.31;4906481;29;20015;-88
2021/03/25 11:57:28;;;;;;;16.38;9.32;;;;;;;14.12;38.38;98322.50;4923008;29;20036;-87
2021/03/25 12:00:34;;;;;;;17.95;10.85;;;;;;;14.05;38.09;98294.59;4920170;29;20036;-88
2021/03/25 12:03:15;;;;;;;16.75;10.80;;;;;;;13.94;38.50;98310.50;4921088;29;20044;-88
2021/03/25 12:06:10;;;;;;;14.45;10.65;;;;;;;14.03;38.34;98292.16;4921532;29;20032;-87
2021/03/25 12:08:38;;;;;;;22.42;9.75;;;;;;;14.00;38.35;98298.28;4890925;29;20127;-87
2021/03/25 12:11:09;;;;;;;13.80;9.95;;;;;;;14.30;37.83;98297.56;4909560;29;20045;-86
2021/03/25 12:13:34;;;;;;;15.52;9.95;;;;;;;14.48;37.79;98291.09;4910506;29;20028;-88
2021/03/25 12:16:00;;;;;;;14.85;9.43;;;;;;;14.48;37.54;98276.53;4906577;29;20093;-85
2021/03/25 12:18:39;;;;;;;16.45;9.98;;;;;;;14.42;37.68;98267.59;4887292;29;20104;-86
2021/03/25 12:21:11;;;;;;;16.20;9.88;;;;;;;14.60;37.48;98263.00;4895843;29;20088;-87
2021/03/25 12:23:39;;;;;;;18.73;10.18;;;;;;;14.56;37.47;98250.19;4909008;29;20024;-86
2021/03/25 12:26:10;;;;;;;19.70;11.10;;;;;;;14.82;37.16;98270.44;4903103;29;20072;-87
2021/03/25 12:28:38;;;;;;;12.27;9.52;;;;;;;14.65;37.20;98243.63;4907837;29;20013;-88
2021/03/25 12:31:07;;;;;;;12.45;8.57;;;;;;;14.66;37.48;98255.47;4882135;29;20020;-88
2021/03/25 12:33:37;;;;;;;16.05;9.57;;;;;;;14.75;37.20;98248.88;4889037;29;20032;-87
2021/03/25 12:36:16;;;;;;;15.13;10.35;;;;;;;14.76;37.26;98244.97;4909899;29;20083;-86
2021/03/25 12:38:45;;;;;;;13.38;9.40;;;;;;;14.72;37.44;98232.16;4905032;29;20032;-88
2021/03/25 12:42:02;;;;;;;16.38;10.05;;;;;;;14.95;37.14;98237.31;4877769;29;20041;-87
2021/03/25 12:44:28;;;;;;;18.55;10.35;;;;;;;15.12;36.74;98230.25;4901747;29;20037;-88
2021/03/25 12:47:16;;;;;;;15.60;8.68;;;;;;;14.94;37.05;98227.41;4897664;29;20017;-87
2021/03/25 12:49:42;;;;;;;16.33;9.73;;;;;;;15.13;36.94;98220.88;4899865;29;20036;-87
2021/03/25 12:52:09;;;;;;;14.55;9.32;;;;;;;15.07;36.90;98183.56;4908002;29;20107;-88
2021/03/25 12:54:37;;;;;;;12.73;9.35;;;;;;;15.44;36.69;98194.03;4897193;29;20037;-88
2021/03/25 12:57:05;;;;;;;12.93;9.57;;;;;;;15.38;36.30;98206.34;4902682;29;20029;-87
2021/03/25 12:59:34;;;;;;;16.00;10.43;;;;;;;15.29;36.45;98208.25;4883886;29;20025;-87
2021/03/25 13:02:15;;;;;;;13.38;9.65;;;;;;;15.03;37.05;98194.41;4912163;29;20063;-88
2021/03/25 13:04:44;;;;;;;13.93;9.37;;;;;;;15.12;36.85;98192.50;4894022;29;20045;-84
2021/03/25 13:07:09;;;;;;;12.05;8.55;;;;;;;15.28;36.63;98195.63;4879172;29;20037;-86
2021/03/25 13:09:35;;;;;;;14.65;9.88;;;;;;;15.17;36.77;98174.97;4888983;29;20024;-84
2021/03/25 13:12:11;;;;;;;16.58;9.52;;;;;;;15.40;36.82;98179.28;4890441;29;20483;-84
2021/03/25 13:14:37;;;;;;;13.80;9.07;;;;;;;15.50;36.37;98184.53;4889547;29;20040;-84